sensor_id;sensor_type;location;lat;lon;timestamp;pressure;altitude;pressure_sealevel;temperature;humidity
43814;BME280;29669;55.706;37.656;2024-01-30T00:00:57;101084.72;;;0.32;77.42
43814;BME280;29669;55.706;37.656;2024-01-30T00:03:26;101093.00;;;0.37;77.38
43814;BME280;29669;55.706;37.656;2024-01-30T00:05:54;101096.25;;;0.40;77.43
43814;BME280;29669;55.706;37.656;2024-01-30T00:08:26;101105.72;;;0.38;77.34
43814;BME280;29669;55.706;37.656;2024-01-30T00:10:54;101109.16;;;0.37;77.21
43814;BME280;29669;55.706;37.656;2024-01-30T00:13:29;101098.19;;;0.35;77.34
43814;BME280;29669;55.706;37.656;2024-01-30T00:15:57;101100.06;;;0.32;77.36
43814;BME280;29669;55.706;37.656;2024-01-30T00:18:25;101105.91;;;0.34;77.41
43814;BME280;29669;55.706;37.656;2024-01-30T00:20:52;101099.91;;;0.35;77.29
43814;BME280;29669;55.706;37.656;2024-01-30T00:23:21;101098.19;;;0.35;77.31
43814;BME280;29669;55.706;37.656;2024-01-30T00:25:50;101094.03;;;0.33;77.21
43814;BME280;29669;55.706;37.656;2024-01-30T00:28:18;101086.44;;;0.31;77.42
43814;BME280;29669;55.706;37.656;2024-01-30T00:30:46;101095.91;;;0.29;77.35
43814;BME280;29669;55.706;37.656;2024-01-30T00:33:14;101092.50;;;0.29;77.35
43814;BME280;29669;55.706;37.656;2024-01-30T00:35:42;101106.09;;;0.29;77.43
43814;BME280;29669;55.706;37.656;2024-01-30T00:38:10;101101.84;;;0.30;77.26
43814;BME280;29669;55.706;37.656;2024-01-30T00:40:38;101091.63;;;0.30;77.44
43814;BME280;29669;55.706;37.656;2024-01-30T00:43:06;101089.00;;;0.31;77.59
43814;BME280;29669;55.706;37.656;2024-01-30T00:45:34;101087.13;;;0.35;77.68
43814;BME280;29669;55.706;37.656;2024-01-30T00:48:02;101081.16;;;0.36;77.46
43814;BME280;29669;55.706;37.656;2024-01-30T00:50:30;101093.78;;;0.39;77.31
43814;BME280;29669;55.706;37.656;2024-01-30T00:52:59;101090.53;;;0.35;77.21
43814;BME280;29669;55.706;37.656;2024-01-30T00:55:26;101088.81;;;0.36;77.28
43814;BME280;29669;55.706;37.656;2024-01-30T00:57:54;101088.66;;;0.39;77.57
43814;BME280;29669;55.706;37.656;2024-01-30T01:00:22;101085.25;;;0.40;77.37
43814;BME280;29669;55.706;37.656;2024-01-30T01:02:56;101090.34;;;0.40;77.50
43814;BME280;29669;55.706;37.656;2024-01-30T01:05:25;101090.19;;;0.43;77.52
43814;BME280;29669;55.706;37.656;2024-01-30T01:07:53;101076.50;;;0.44;77.50
43814;BME280;29669;55.706;37.656;2024-01-30T01:10:21;101090.06;;;0.46;77.53
43814;BME280;29669;55.706;37.656;2024-01-30T01:12:50;101087.50;;;0.46;77.58
43814;BME280;29669;55.706;37.656;2024-01-30T01:15:18;101074.59;;;0.49;77.39
43814;BME280;29669;55.706;37.656;2024-01-30T01:17:46;101076.41;;;0.47;77.49
43814;BME280;29669;55.706;37.656;2024-01-30T01:20:14;101080.53;;;0.49;77.46
43814;BME280;29669;55.706;37.656;2024-01-30T01:22:42;101073.63;;;0.51;77.38
43814;BME280;29669;55.706;37.656;2024-01-30T01:25:10;101056.50;;;0.53;77.50
43814;BME280;29669;55.706;37.656;2024-01-30T01:27:38;101068.31;;;0.56;77.38
43814;BME280;29669;55.706;37.656;2024-01-30T01:30:10;101068.25;;;0.57;77.21
43814;BME280;29669;55.706;37.656;2024-01-30T01:32:39;101067.41;;;0.57;77.22
43814;BME280;29669;55.706;37.656;2024-01-30T01:35:12;101068.19;;;0.59;77.34
43814;BME280;29669;55.706;37.656;2024-01-30T01:37:40;101064.75;;;0.60;77.38
43814;BME280;29669;55.706;37.656;2024-01-30T01:40:09;101049.41;;;0.60;77.35
43814;BME280;29669;55.706;37.656;2024-01-30T01:42:37;101059.56;;;0.61;77.27
43814;BME280;29669;55.706;37.656;2024-01-30T01:45:06;101065.22;;;0.68;77.50
43814;BME280;29669;55.706;37.656;2024-01-30T01:47:34;101055.78;;;0.70;77.33
43814;BME280;29669;55.706;37.656;2024-01-30T01:50:02;101050.66;;;0.70;77.12
43814;BME280;29669;55.706;37.656;2024-01-30T01:52:31;101043.88;;;0.69;77.27
43814;BME280;29669;55.706;37.656;2024-01-30T01:55:00;101043.81;;;0.70;77.00
43814;BME280;29669;55.706;37.656;2024-01-30T01:57:29;101048.09;;;0.70;77.25
43814;BME280;29669;55.706;37.656;2024-01-30T01:59:57;101051.56;;;0.69;77.34
43814;BME280;29669;55.706;37.656;2024-01-30T02:02:26;101046.31;;;0.72;77.43
43814;BME280;29669;55.706;37.656;2024-01-30T02:04:58;101038.34;;;0.78;77.18
43814;BME280;29669;55.706;37.656;2024-01-30T02:07:27;101046.00;;;0.78;77.30
43814;BME280;29669;55.706;37.656;2024-01-30T02:09:56;101031.31;;;0.83;77.18
43814;BME280;29669;55.706;37.656;2024-01-30T02:12:24;101038.22;;;0.81;77.60
43814;BME280;29669;55.706;37.656;2024-01-30T02:14:52;101035.59;;;0.82;77.29
43814;BME280;29669;55.706;37.656;2024-01-30T02:17:22;101032.97;;;0.84;77.49
43814;BME280;29669;55.706;37.656;2024-01-30T02:19:52;101037.19;;;0.85;77.02
43814;BME280;29669;55.706;37.656;2024-01-30T02:22:21;101049.75;;;0.89;77.18
43814;BME280;29669;55.706;37.656;2024-01-30T02:24:50;101038.69;;;0.89;77.07
43814;BME280;29669;55.706;37.656;2024-01-30T02:27:18;101038.81;;;0.86;77.22
43814;BME280;29669;55.706;37.656;2024-01-30T02:29:46;101042.16;;;0.88;77.17
43814;BME280;29669;55.706;37.656;2024-01-30T02:32:14;101039.59;;;0.88;77.16
43814;BME280;29669;55.706;37.656;2024-01-30T02:34:42;101041.47;;;0.84;77.14
43814;BME280;29669;55.706;37.656;2024-01-30T02:37:10;101048.91;;;0.89;77.35
43814;BME280;29669;55.706;37.656;2024-01-30T02:39:38;101040.50;;;0.87;77.00
43814;BME280;29669;55.706;37.656;2024-01-30T02:42:06;101026.81;;;0.88;77.32
43814;BME280;29669;55.706;37.656;2024-01-30T02:44:34;101041.19;;;0.90;77.23
43814;BME280;29669;55.706;37.656;2024-01-30T02:47:01;101032.59;;;0.91;77.24
43814;BME280;29669;55.706;37.656;2024-01-30T02:49:29;101050.41;;;0.93;77.34
43814;BME280;29669;55.706;37.656;2024-01-30T02:51:57;101034.31;;;0.91;77.25
43814;BME280;29669;55.706;37.656;2024-01-30T02:54:25;101030.06;;;0.91;77.27
43814;BME280;29669;55.706;37.656;2024-01-30T02:56:53;101029.16;;;0.92;77.21
43814;BME280;29669;55.706;37.656;2024-01-30T02:59:21;101032.47;;;0.94;77.29
43814;BME280;29669;55.706;37.656;2024-01-30T03:01:49;101058.03;;;0.94;77.14
43814;BME280;29669;55.706;37.656;2024-01-30T03:04:17;101033.44;;;0.92;77.15
43814;BME280;29669;55.706;37.656;2024-01-30T03:06:45;101038.34;;;0.97;77.31
43814;BME280;29669;55.706;37.656;2024-01-30T03:09:18;101047.59;;;0.99;77.11
43814;BME280;29669;55.706;37.656;2024-01-30T03:11:46;101044.16;;;1.00;77.12
43814;BME280;29669;55.706;37.656;2024-01-30T03:14:14;101047.47;;;1.02;77.16
43814;BME280;29669;55.706;37.656;2024-01-30T03:16:41;101058.28;;;1.07;77.11
43814;BME280;29669;55.706;37.656;2024-01-30T03:19:09;101056.63;;;1.06;77.09
43814;BME280;29669;55.706;37.656;2024-01-30T03:21:38;101040.47;;;1.06;77.21
43814;BME280;29669;55.706;37.656;2024-01-30T03:24:06;101057.47;;;1.07;76.82
43814;BME280;29669;55.706;37.656;2024-01-30T03:26:33;101062.50;;;1.08;77.20
43814;BME280;29669;55.706;37.656;2024-01-30T03:29:01;101058.28;;;1.07;77.29
43814;BME280;29669;55.706;37.656;2024-01-30T03:31:29;101058.22;;;1.09;77.08
43814;BME280;29669;55.706;37.656;2024-01-30T03:33:57;101053.03;;;1.10;77.08
43814;BME280;29669;55.706;37.656;2024-01-30T03:36:25;101055.72;;;1.07;77.17
43814;BME280;29669;55.706;37.656;2024-01-30T03:38:54;101069.19;;;1.11;77.38
43814;BME280;29669;55.706;37.656;2024-01-30T03:41:21;101044.47;;;1.11;77.41
43814;BME280;29669;55.706;37.656;2024-01-30T03:43:50;101045.00;;;1.18;77.25
43814;BME280;29669;55.706;37.656;2024-01-30T03:46:18;101040.72;;;1.18;76.82
43814;BME280;29669;55.706;37.656;2024-01-30T03:48:46;101060.13;;;1.22;77.08
43814;BME280;29669;55.706;37.656;2024-01-30T03:51:14;101056.66;;;1.23;76.98
43814;BME280;29669;55.706;37.656;2024-01-30T03:53:43;101064.47;;;1.20;76.99
43814;BME280;29669;55.706;37.656;2024-01-30T03:56:12;101063.56;;;1.21;77.19
43814;BME280;29669;55.706;37.656;2024-01-30T03:58:41;101078.09;;;1.21;77.26
43814;BME280;29669;55.706;37.656;2024-01-30T04:01:13;101078.91;;;1.21;77.21
43814;BME280;29669;55.706;37.656;2024-01-30T04:03:42;101065.41;;;1.19;77.12
43814;BME280;29669;55.706;37.656;2024-01-30T04:06:12;101076.22;;;1.24;77.18
43814;BME280;29669;55.706;37.656;2024-01-30T04:08:40;101076.84;;;1.29;77.04
43814;BME280;29669;55.706;37.656;2024-01-30T04:11:07;101078.44;;;1.32;77.07
43814;BME280;29669;55.706;37.656;2024-01-30T04:13:35;101076.75;;;1.31;77.15
43814;BME280;29669;55.706;37.656;2024-01-30T04:16:04;101078.63;;;1.27;77.05
43814;BME280;29669;55.706;37.656;2024-01-30T04:18:32;101068.28;;;1.30;77.25
43814;BME280;29669;55.706;37.656;2024-01-30T04:21:01;101077.59;;;1.31;77.07
43814;BME280;29669;55.706;37.656;2024-01-30T04:23:29;101070.00;;;1.30;77.24
43814;BME280;29669;55.706;37.656;2024-01-30T04:25:57;101066.41;;;1.34;77.21
43814;BME280;29669;55.706;37.656;2024-01-30T04:28:24;101063.59;;;1.38;77.21
43814;BME280;29669;55.706;37.656;2024-01-30T04:30:54;101062.50;;;1.44;77.02
43814;BME280;29669;55.706;37.656;2024-01-30T04:33:22;101060.00;;;1.42;77.12
43814;BME280;29669;55.706;37.656;2024-01-30T04:35:49;101052.31;;;1.42;77.17
43814;BME280;29669;55.706;37.656;2024-01-30T04:38:17;101059.88;;;1.45;77.22
43814;BME280;29669;55.706;37.656;2024-01-30T04:40:45;101058.19;;;1.44;77.10
43814;BME280;29669;55.706;37.656;2024-01-30T04:43:13;101057.44;;;1.42;77.13
43814;BME280;29669;55.706;37.656;2024-01-30T04:45:42;101059.25;;;1.40;77.07
43814;BME280;29669;55.706;37.656;2024-01-30T04:48:10;101063.19;;;1.47;77.26
43814;BME280;29669;55.706;37.656;2024-01-30T04:50:38;101064.53;;;1.54;77.25
43814;BME280;29669;55.706;37.656;2024-01-30T04:53:06;101076.50;;;1.54;77.06
43814;BME280;29669;55.706;37.656;2024-01-30T04:55:35;101068.72;;;1.55;77.01
43814;BME280;29669;55.706;37.656;2024-01-30T04:58:04;101076.50;;;1.54;76.84
43814;BME280;29669;55.706;37.656;2024-01-30T05:00:32;101071.16;;;1.58;77.01
43814;BME280;29669;55.706;37.656;2024-01-30T05:02:59;101071.28;;;1.55;76.89
43814;BME280;29669;55.706;37.656;2024-01-30T05:05:27;101068.72;;;1.55;77.03
43814;BME280;29669;55.706;37.656;2024-01-30T05:07:55;101073.09;;;1.53;76.88
43814;BME280;29669;55.706;37.656;2024-01-30T05:10:23;101060.38;;;1.52;76.93
43814;BME280;29669;55.706;37.656;2024-01-30T05:12:51;101056.78;;;1.56;77.32
43814;BME280;29669;55.706;37.656;2024-01-30T05:15:19;101061.91;;;1.56;77.20
43814;BME280;29669;55.706;37.656;2024-01-30T05:17:47;101054.28;;;1.54;77.26
43814;BME280;29669;55.706;37.656;2024-01-30T05:20:17;101065.13;;;1.59;77.15
43814;BME280;29669;55.706;37.656;2024-01-30T05:22:45;101056.47;;;1.62;77.22
43814;BME280;29669;55.706;37.656;2024-01-30T05:25:13;101051.53;;;1.59;77.17
43814;BME280;29669;55.706;37.656;2024-01-30T05:27:41;101066.81;;;1.60;77.06
43814;BME280;29669;55.706;37.656;2024-01-30T05:30:10;101069.34;;;1.60;76.99
43814;BME280;29669;55.706;37.656;2024-01-30T05:32:38;101082.66;;;1.67;77.18
43814;BME280;29669;55.706;37.656;2024-01-30T05:35:06;101075.44;;;1.75;76.89
43814;BME280;29669;55.706;37.656;2024-01-30T05:37:35;101073.81;;;1.74;76.97
43814;BME280;29669;55.706;37.656;2024-01-30T05:40:03;101068.44;;;1.78;76.79
43814;BME280;29669;55.706;37.656;2024-01-30T05:42:32;101070.25;;;1.76;76.88
43814;BME280;29669;55.706;37.656;2024-01-30T05:45:00;101070.25;;;1.76;76.95
43814;BME280;29669;55.706;37.656;2024-01-30T05:47:31;101070.25;;;1.76;77.10
43814;BME280;29669;55.706;37.656;2024-01-30T05:49:59;101082.28;;;1.74;77.15
43814;BME280;29669;55.706;37.656;2024-01-30T05:52:27;101067.09;;;1.71;77.10
43814;BME280;29669;55.706;37.656;2024-01-30T05:54:55;101082.84;;;1.81;77.21
43814;BME280;29669;55.706;37.656;2024-01-30T05:57:23;101087.66;;;1.87;77.02
43814;BME280;29669;55.706;37.656;2024-01-30T05:59:51;101085.09;;;1.87;76.95
43814;BME280;29669;55.706;37.656;2024-01-30T06:02:19;101094.28;;;1.91;76.75
43814;BME280;29669;55.706;37.656;2024-01-30T06:04:47;101089.09;;;1.92;76.87
43814;BME280;29669;55.706;37.656;2024-01-30T06:07:15;101087.50;;;1.90;76.86
43814;BME280;29669;55.706;37.656;2024-01-30T06:09:45;101093.75;;;1.84;76.88
43814;BME280;29669;55.706;37.656;2024-01-30T06:12:14;101098.69;;;1.87;77.19
43814;BME280;29669;55.706;37.656;2024-01-30T06:15:01;101099.69;;;1.85;76.93
43814;BME280;29669;55.706;37.656;2024-01-30T06:17:31;101101.34;;;1.86;77.03
43814;BME280;29669;55.706;37.656;2024-01-30T06:19:59;101092.91;;;1.84;77.11
43814;BME280;29669;55.706;37.656;2024-01-30T06:22:27;101096.00;;;1.90;76.95
43814;BME280;29669;55.706;37.656;2024-01-30T06:24:55;101101.03;;;1.92;77.04
43814;BME280;29669;55.706;37.656;2024-01-30T06:27:23;101100.88;;;1.95;77.29
43814;BME280;29669;55.706;37.656;2024-01-30T06:29:51;101105.72;;;2.01;76.94
43814;BME280;29669;55.706;37.656;2024-01-30T06:32:18;101114.69;;;2.10;76.91
43814;BME280;29669;55.706;37.656;2024-01-30T06:34:46;101113.00;;;2.09;76.85
43814;BME280;29669;55.706;37.656;2024-01-30T06:37:14;101100.97;;;2.11;76.81
43814;BME280;29669;55.706;37.656;2024-01-30T06:39:42;101117.75;;;2.16;76.90
43814;BME280;29669;55.706;37.656;2024-01-30T06:42:10;101110.44;;;2.26;76.95
43814;BME280;29669;55.706;37.656;2024-01-30T06:44:39;101111.03;;;2.31;77.09
43814;BME280;29669;55.706;37.656;2024-01-30T06:47:07;101112.84;;;2.29;76.63
43814;BME280;29669;55.706;37.656;2024-01-30T06:49:35;101120.47;;;2.30;76.85
43814;BME280;29669;55.706;37.656;2024-01-30T06:52:06;101116.16;;;2.31;76.88
43814;BME280;29669;55.706;37.656;2024-01-30T06:54:34;101117.63;;;2.35;76.68
43814;BME280;29669;55.706;37.656;2024-01-30T06:57:02;101126.06;;;2.37;76.67
43814;BME280;29669;55.706;37.656;2024-01-30T06:59:31;101121.88;;;2.36;76.77
43814;BME280;29669;55.706;37.656;2024-01-30T07:01:59;101119.91;;;2.41;76.47
43814;BME280;29669;55.706;37.656;2024-01-30T07:04:36;101125.78;;;2.43;76.14
43814;BME280;29669;55.706;37.656;2024-01-30T07:07:23;101120.97;;;2.37;76.69
43814;BME280;29669;55.706;37.656;2024-01-30T07:09:51;101127.38;;;2.45;76.51
43814;BME280;29669;55.706;37.656;2024-01-30T07:12:31;101129.00;;;2.46;76.47
43814;BME280;29669;55.706;37.656;2024-01-30T07:14:59;101142.88;;;2.42;76.63
43814;BME280;29669;55.706;37.656;2024-01-30T07:17:30;101134.38;;;2.42;76.55
43814;BME280;29669;55.706;37.656;2024-01-30T07:19:57;101131.91;;;2.40;76.40
43814;BME280;29669;55.706;37.656;2024-01-30T07:22:26;101146.06;;;2.47;76.56
43814;BME280;29669;55.706;37.656;2024-01-30T07:24:54;101141.28;;;2.57;76.61
43814;BME280;29669;55.706;37.656;2024-01-30T07:27:21;101136.81;;;2.60;76.46
43814;BME280;29669;55.706;37.656;2024-01-30T07:29:49;101143.59;;;2.61;76.61
43814;BME280;29669;55.706;37.656;2024-01-30T07:32:17;101149.16;;;2.69;76.43
43814;BME280;29669;55.706;37.656;2024-01-30T07:34:46;101143.13;;;2.70;76.43
43814;BME280;29669;55.706;37.656;2024-01-30T07:37:32;101139.47;;;2.74;76.43
43814;BME280;29669;55.706;37.656;2024-01-30T07:40:01;101157.44;;;2.74;76.42
43814;BME280;29669;55.706;37.656;2024-01-30T07:42:31;101147.25;;;2.73;76.50
43814;BME280;29669;55.706;37.656;2024-01-30T07:45:00;101156.75;;;2.71;76.34
43814;BME280;29669;55.706;37.656;2024-01-30T07:47:29;101155.56;;;2.78;76.66
43814;BME280;29669;55.706;37.656;2024-01-30T07:49:57;101149.41;;;2.80;76.63
43814;BME280;29669;55.706;37.656;2024-01-30T07:52:25;101145.13;;;2.81;76.44
43814;BME280;29669;55.706;37.656;2024-01-30T07:55:12;101143.91;;;2.88;76.45
43814;BME280;29669;55.706;37.656;2024-01-30T07:58:00;101144.81;;;2.87;76.40
43814;BME280;29669;55.706;37.656;2024-01-30T08:00:28;101141.34;;;2.88;76.45
43814;BME280;29669;55.706;37.656;2024-01-30T08:02:57;101136.81;;;2.93;76.62
43814;BME280;29669;55.706;37.656;2024-01-30T08:05:25;101149.28;;;2.99;76.55
43814;BME280;29669;55.706;37.656;2024-01-30T08:07:53;101140.28;;;3.08;76.23
43814;BME280;29669;55.706;37.656;2024-01-30T08:10:20;101140.88;;;2.97;76.24
43814;BME280;29669;55.706;37.656;2024-01-30T08:12:49;101147.88;;;2.94;76.41
43814;BME280;29669;55.706;37.656;2024-01-30T08:15:17;101145.66;;;2.88;76.40
43814;BME280;29669;55.706;37.656;2024-01-30T08:17:45;101142.06;;;2.90;76.28
43814;BME280;29669;55.706;37.656;2024-01-30T08:20:13;101139.03;;;2.99;76.62
43814;BME280;29669;55.706;37.656;2024-01-30T08:22:42;101132.25;;;2.98;76.22
43814;BME280;29669;55.706;37.656;2024-01-30T08:25:10;101139.38;;;2.93;76.27
43814;BME280;29669;55.706;37.656;2024-01-30T08:27:37;101153.25;;;2.89;76.20
43814;BME280;29669;55.706;37.656;2024-01-30T08:30:06;101149.03;;;2.88;76.53
43814;BME280;29669;55.706;37.656;2024-01-30T08:32:35;101148.88;;;2.91;76.46
43814;BME280;29669;55.706;37.656;2024-01-30T08:35:03;101150.28;;;2.97;76.68
43814;BME280;29669;55.706;37.656;2024-01-30T08:37:31;101151.69;;;3.02;76.46
43814;BME280;29669;55.706;37.656;2024-01-30T08:39:59;101149.97;;;3.03;76.40
43814;BME280;29669;55.706;37.656;2024-01-30T08:42:30;101146.31;;;3.07;76.14
43814;BME280;29669;55.706;37.656;2024-01-30T08:44:58;101147.47;;;3.01;75.95
43814;BME280;29669;55.706;37.656;2024-01-30T08:47:26;101140.03;;;2.97;76.10
43814;BME280;29669;55.706;37.656;2024-01-30T08:49:54;101145.38;;;2.92;76.08
43814;BME280;29669;55.706;37.656;2024-01-30T08:52:21;101133.75;;;3.02;76.05
43814;BME280;29669;55.706;37.656;2024-01-30T08:54:49;101143.09;;;3.03;75.89
43814;BME280;29669;55.706;37.656;2024-01-30T08:57:17;101135.38;;;3.03;75.82
43814;BME280;29669;55.706;37.656;2024-01-30T08:59:45;101142.59;;;2.97;75.87
43814;BME280;29669;55.706;37.656;2024-01-30T09:02:14;101141.94;;;2.93;76.02
43814;BME280;29669;55.706;37.656;2024-01-30T09:04:44;101132.56;;;2.92;75.96
43814;BME280;29669;55.706;37.656;2024-01-30T09:07:12;101138.31;;;2.97;76.06
43814;BME280;29669;55.706;37.656;2024-01-30T09:09:41;101134.97;;;3.11;76.14
43814;BME280;29669;55.706;37.656;2024-01-30T09:12:09;101143.19;;;3.17;75.96
43814;BME280;29669;55.706;37.656;2024-01-30T09:14:40;101144.19;;;3.30;75.71
43814;BME280;29669;55.706;37.656;2024-01-30T09:17:11;101155.94;;;3.34;75.38
43814;BME280;29669;55.706;37.656;2024-01-30T09:19:57;101140.88;;;3.28;75.52
43814;BME280;29669;55.706;37.656;2024-01-30T09:22:29;101146.22;;;3.39;75.37
43814;BME280;29669;55.706;37.656;2024-01-30T09:24:58;101142.81;;;3.54;75.19
43814;BME280;29669;55.706;37.656;2024-01-30T09:27:26;101141.75;;;3.58;75.02
43814;BME280;29669;55.706;37.656;2024-01-30T09:29:53;101145.97;;;3.59;75.16
43814;BME280;29669;55.706;37.656;2024-01-30T09:32:21;101152.94;;;3.57;74.91
43814;BME280;29669;55.706;37.656;2024-01-30T09:34:49;101140.66;;;3.62;74.67
43814;BME280;29669;55.706;37.656;2024-01-30T09:37:17;101139.59;;;3.66;74.64
43814;BME280;29669;55.706;37.656;2024-01-30T09:39:45;101148.91;;;3.83;74.95
43814;BME280;29669;55.706;37.656;2024-01-30T09:42:35;101132.97;;;3.92;74.44
43814;BME280;29669;55.706;37.656;2024-01-30T09:45:05;101133.03;;;4.06;74.65
43814;BME280;29669;55.706;37.656;2024-01-30T09:47:40;101127.78;;;4.08;74.17
43814;BME280;29669;55.706;37.656;2024-01-30T09:50:14;101129.31;;;3.96;73.83
43814;BME280;29669;55.706;37.656;2024-01-30T09:52:44;101134.16;;;3.87;73.99
43814;BME280;29669;55.706;37.656;2024-01-30T09:55:14;101128.19;;;3.86;74.17
43814;BME280;29669;55.706;37.656;2024-01-30T09:57:42;101120.97;;;3.93;74.05
43814;BME280;29669;55.706;37.656;2024-01-30T10:00:11;101115.81;;;3.93;73.48
43814;BME280;29669;55.706;37.656;2024-01-30T10:02:40;101106.47;;;3.92;73.30
43814;BME280;29669;55.706;37.656;2024-01-30T10:05:08;101126.44;;;3.87;72.95
43814;BME280;29669;55.706;37.656;2024-01-30T10:07:37;101121.22;;;3.88;73.02
43814;BME280;29669;55.706;37.656;2024-01-30T10:10:05;101126.19;;;3.91;73.04
43814;BME280;29669;55.706;37.656;2024-01-30T10:12:34;101131.78;;;3.98;73.05
43814;BME280;29669;55.706;37.656;2024-01-30T10:15:02;101121.75;;;4.09;72.65
43814;BME280;29669;55.706;37.656;2024-01-30T10:17:31;101121.16;;;4.04;72.20
43814;BME280;29669;55.706;37.656;2024-01-30T10:20:04;101136.94;;;3.98;72.44
43814;BME280;29669;55.706;37.656;2024-01-30T10:22:33;101127.81;;;3.92;71.86
43814;BME280;29669;55.706;37.656;2024-01-30T10:25:01;101133.91;;;3.91;71.94
43814;BME280;29669;55.706;37.656;2024-01-30T10:27:33;101132.09;;;3.77;71.82
43814;BME280;29669;55.706;37.656;2024-01-30T10:30:00;101128.44;;;3.81;72.34
43814;BME280;29669;55.706;37.656;2024-01-30T10:32:31;101135.97;;;3.84;72.25
43814;BME280;29669;55.706;37.656;2024-01-30T10:34:59;101136.72;;;3.87;72.10
43814;BME280;29669;55.706;37.656;2024-01-30T10:37:31;101136.81;;;3.85;72.00
43814;BME280;29669;55.706;37.656;2024-01-30T10:40:03;101129.00;;;3.87;71.81
43814;BME280;29669;55.706;37.656;2024-01-30T10:42:36;101134.34;;;3.83;71.64
43814;BME280;29669;55.706;37.656;2024-01-30T10:45:12;101136.16;;;3.81;71.81
43814;BME280;29669;55.706;37.656;2024-01-30T10:47:53;101139.47;;;3.83;71.67
43814;BME280;29669;55.706;37.656;2024-01-30T10:50:23;101140.72;;;3.76;71.29
43814;BME280;29669;55.706;37.656;2024-01-30T10:52:52;101139.34;;;3.55;71.03
43814;BME280;29669;55.706;37.656;2024-01-30T10:55:22;101140.53;;;3.50;71.55
43814;BME280;29669;55.706;37.656;2024-01-30T10:57:51;101134.38;;;3.52;71.31
43814;BME280;29669;55.706;37.656;2024-01-30T11:03:07;101134.28;;;3.69;71.31
43814;BME280;29669;55.706;37.656;2024-01-30T11:05:35;101126.53;;;3.85;71.25
43814;BME280;29669;55.706;37.656;2024-01-30T11:08:23;101122.47;;;4.11;70.93
43814;BME280;29669;55.706;37.656;2024-01-30T11:10:55;101126.44;;;4.30;70.80
43814;BME280;29669;55.706;37.656;2024-01-30T11:13:29;101142.69;;;4.31;70.42
43814;BME280;29669;55.706;37.656;2024-01-30T11:16:05;101139.94;;;4.20;69.96
43814;BME280;29669;55.706;37.656;2024-01-30T11:18:35;101122.66;;;4.08;69.92
43814;BME280;29669;55.706;37.656;2024-01-30T11:21:04;101128.97;;;4.02;70.02
43814;BME280;29669;55.706;37.656;2024-01-30T11:23:33;101134.44;;;3.96;70.60
43814;BME280;29669;55.706;37.656;2024-01-30T11:26:03;101126.59;;;3.99;70.62
43814;BME280;29669;55.706;37.656;2024-01-30T11:28:33;101142.25;;;3.95;70.76
43814;BME280;29669;55.706;37.656;2024-01-30T11:31:05;101142.94;;;3.82;70.78
43814;BME280;29669;55.706;37.656;2024-01-30T11:33:35;101135.28;;;3.67;71.00
43814;BME280;29669;55.706;37.656;2024-01-30T11:36:04;101136.78;;;3.55;71.11
43814;BME280;29669;55.706;37.656;2024-01-30T11:38:34;101125.50;;;3.58;71.00
43814;BME280;29669;55.706;37.656;2024-01-30T11:41:03;101132.56;;;3.54;71.23
43814;BME280;29669;55.706;37.656;2024-01-30T11:43:32;101145.91;;;3.45;71.09
43814;BME280;29669;55.706;37.656;2024-01-30T11:46:01;101154.34;;;3.47;71.43
43814;BME280;29669;55.706;37.656;2024-01-30T11:48:30;101149.88;;;3.51;71.10
43814;BME280;29669;55.706;37.656;2024-01-30T11:50:58;101160.78;;;3.54;70.91
43814;BME280;29669;55.706;37.656;2024-01-30T11:53:27;101172.22;;;3.64;71.05
43814;BME280;29669;55.706;37.656;2024-01-30T11:55:55;101167.66;;;3.69;70.83
43814;BME280;29669;55.706;37.656;2024-01-30T11:58:26;101167.84;;;3.66;70.69
43814;BME280;29669;55.706;37.656;2024-01-30T12:00:57;101161.94;;;3.64;70.88
43814;BME280;29669;55.706;37.656;2024-01-30T12:03:25;101158.44;;;3.65;70.65
43814;BME280;29669;55.706;37.656;2024-01-30T12:05:57;101174.59;;;3.67;70.85
43814;BME280;29669;55.706;37.656;2024-01-30T12:08:29;101176.69;;;3.61;70.73
43814;BME280;29669;55.706;37.656;2024-01-30T12:10:57;101170.41;;;3.66;70.65
43814;BME280;29669;55.706;37.656;2024-01-30T12:13:34;101176.44;;;3.65;70.63
43814;BME280;29669;55.706;37.656;2024-01-30T12:16:03;101173.38;;;3.59;70.77
43814;BME280;29669;55.706;37.656;2024-01-30T12:18:31;101169.97;;;3.58;70.98
43814;BME280;29669;55.706;37.656;2024-01-30T12:21:01;101174.13;;;3.61;70.66
43814;BME280;29669;55.706;37.656;2024-01-30T12:23:29;101175.03;;;3.60;70.71
43814;BME280;29669;55.706;37.656;2024-01-30T12:26:01;101174.22;;;3.59;70.48
43814;BME280;29669;55.706;37.656;2024-01-30T12:28:30;101178.25;;;3.63;70.74
43814;BME280;29669;55.706;37.656;2024-01-30T12:31:01;101172.22;;;3.64;70.56
43814;BME280;29669;55.706;37.656;2024-01-30T12:33:31;101174.78;;;3.64;70.62
43814;BME280;29669;55.706;37.656;2024-01-30T12:36:04;101174.78;;;3.64;70.68
43814;BME280;29669;55.706;37.656;2024-01-30T12:38:32;101167.66;;;3.69;70.65
43814;BME280;29669;55.706;37.656;2024-01-30T12:41:01;101173.84;;;3.65;70.58
43814;BME280;29669;55.706;37.656;2024-01-30T12:43:31;101172.47;;;3.60;70.63
43814;BME280;29669;55.706;37.656;2024-01-30T12:46:05;101169.41;;;3.53;70.35
43814;BME280;29669;55.706;37.656;2024-01-30T12:48:34;101174.56;;;3.53;70.57
43814;BME280;29669;55.706;37.656;2024-01-30T12:51:02;101174.47;;;3.55;70.51
43814;BME280;29669;55.706;37.656;2024-01-30T12:53:32;101170.31;;;3.52;70.57
43814;BME280;29669;55.706;37.656;2024-01-30T12:56:02;101177.13;;;3.53;70.52
43814;BME280;29669;55.706;37.656;2024-01-30T12:58:30;101187.53;;;3.50;70.52
43814;BME280;29669;55.706;37.656;2024-01-30T13:00:58;101184.06;;;3.51;70.60
43814;BME280;29669;55.706;37.656;2024-01-30T13:03:27;101186.22;;;3.59;70.80